Time;durP1;ratioP1;P1;durP2;ratioP2;P2;SDS_P1;SDS_P2;PMS_P1;PMS_P2;Temp;Humidity;BMP_temperature;BMP_pressure;BME280_temperature;BME280_humidity;BME280_pressure;Samples;Min_cycle;Max_cycle;Signal;HPM_P1;HPM_P2
2022/01/06 00:01:51;;;;;;;;;30.00;26.75;;;;;;;;5056324;28;45357;-69
2022/01/06 00:04:16;;;;;;;;;32.50;27.75;;;;;;;;5058632;27;45489;-68
2022/01/06 00:06:43;;;;;;;;;29.50;29.50;;;;;;;;5083135;27;45434;-69
2022/01/06 00:09:10;;;;;;;;;25.75;24.00;;;;;;;;5081440;27;46571;-67
2022/01/06 00:11:35;;;;;;;;;31.50;29.25;;;;;;;;5059594;28;45492;-68
2022/01/06 00:14:07;;;;;;;;;32.75;29.75;;;;;;;;5051440;28;45323;-68
2022/01/06 00:24:21;;;;;;;;;28.25;27.00;;;;;;;;5054949;28;45903;-71
2022/01/06 00:26:48;;;;;;;;;21.50;21.50;;;;;;;;5067538;27;45388;-71
2022/01/06 00:29:14;;;;;;;;;25.50;25.50;;;;;;;;5052240;28;47448;-71
2022/01/06 00:31:39;;;;;;;;;35.75;32.50;;;;;;;;5049176;28;45510;-70
2022/01/06 00:34:08;;;;;;;;;30.50;26.50;;;;;;;;5049200;28;45359;-71
2022/01/06 00:36:34;;;;;;;;;37.00;32.75;;;;;;;;5060963;28;46282;-70
2022/01/06 00:38:59;;;;;;;;;32.00;31.75;;;;;;;;5062681;27;46522;-70
2022/01/06 00:41:24;;;;;;;;;34.25;31.00;;;;;;;;5034625;28;45477;-70
2022/01/06 00:43:49;;;;;;;;;31.00;30.75;;;;;;;;5045593;28;45517;-70
2022/01/06 00:46:15;;;;;;;;;24.75;24.50;;;;;;;;5044737;28;45465;-70
2022/01/06 00:48:40;;;;;;;;;34.00;31.75;;;;;;;;5047147;28;45683;-71
2022/01/06 00:51:06;;;;;;;;;34.25;31.50;;;;;;;;5032865;28;45772;-72
2022/01/06 00:53:31;;;;;;;;;37.75;31.50;;;;;;;;5050362;28;45375;-71
2022/01/06 00:55:56;;;;;;;;;40.50;34.75;;;;;;;;5048465;28;45467;-70
2022/01/06 00:58:21;;;;;;;;;31.00;31.00;;;;;;;;5048973;28;46131;-72
2022/01/06 01:00:46;;;;;;;;;35.25;34.50;;;;;;;;5050401;28;45494;-71
2022/01/06 01:03:13;;;;;;;;;37.75;32.00;;;;;;;;5053625;28;45495;-70
2022/01/06 01:05:39;;;;;;;;;36.75;31.50;;;;;;;;5069365;27;45503;-71
2022/01/06 01:08:04;;;;;;;;;37.00;35.25;;;;;;;;5052494;28;47553;-70
2022/01/06 01:10:30;;;;;;;;;38.25;32.75;;;;;;;;5048414;28;45448;-71
2022/01/06 01:12:55;;;;;;;;;38.00;36.25;;;;;;;;5034628;28;45446;-71
2022/01/06 01:15:20;;;;;;;;;37.00;32.00;;;;;;;;5039013;28;45484;-70
2022/01/06 01:17:52;;;;;;;;;28.00;26.25;;;;;;;;5053181;28;46266;-69
2022/01/06 01:20:18;;;;;;;;;31.25;25.50;;;;;;;;5018712;28;45359;-70
2022/01/06 01:22:44;;;;;;;;;39.75;30.75;;;;;;;;5062038;28;45437;-70
2022/01/06 01:25:09;;;;;;;;;36.50;34.00;;;;;;;;5051255;28;45483;-71
2022/01/06 01:27:39;;;;;;;;;29.00;27.75;;;;;;;;5032394;28;46633;-71
2022/01/06 01:30:10;;;;;;;;;28.00;27.00;;;;;;;;5050665;28;45441;-70
2022/01/06 01:32:37;;;;;;;;;29.50;25.75;;;;;;;;5044834;28;45525;-70
2022/01/06 01:35:03;;;;;;;;;31.75;30.75;;;;;;;;5052514;28;45474;-71
2022/01/06 01:37:29;;;;;;;;;31.75;27.50;;;;;;;;5034968;28;46755;-71
2022/01/06 01:39:55;;;;;;;;;31.25;27.50;;;;;;;;5037813;28;45471;-69
2022/01/06 01:42:20;;;;;;;;;26.50;25.75;;;;;;;;5047756;28;45380;-71
2022/01/06 01:44:48;;;;;;;;;31.25;30.75;;;;;;;;5050734;28;45430;-70
2022/01/06 01:47:15;;;;;;;;;27.25;26.75;;;;;;;;5034172;28;47584;-70
2022/01/06 01:49:50;;;;;;;;;33.25;28.75;;;;;;;;5030139;28;45619;-70
2022/01/06 01:52:15;;;;;;;;;31.50;31.00;;;;;;;;5053311;28;45282;-68
2022/01/06 01:54:41;;;;;;;;;28.25;26.75;;;;;;;;5031107;28;45555;-69
2022/01/06 01:57:06;;;;;;;;;33.00;27.75;;;;;;;;5064807;28;47612;-69
2022/01/06 01:59:31;;;;;;;;;32.75;28.75;;;;;;;;5049763;28;45689;-69
2022/01/06 02:01:56;;;;;;;;;25.25;22.00;;;;;;;;5050715;28;45412;-70
2022/01/06 02:04:21;;;;;;;;;31.00;29.00;;;;;;;;5034626;28;45562;-69
2022/01/06 02:06:47;;;;;;;;;31.50;30.00;;;;;;;;5033422;28;47015;-68
2022/01/06 02:09:12;;;;;;;;;33.00;31.50;;;;;;;;5033524;28;45394;-68
2022/01/06 02:11:37;;;;;;;;;33.25;30.75;;;;;;;;5052084;28;45449;-70
2022/01/06 02:14:05;;;;;;;;;30.25;26.75;;;;;;;;5034047;28;45425;-70
2022/01/06 02:16:30;;;;;;;;;33.50;29.25;;;;;;;;5053072;28;45750;-70
2022/01/06 02:18:55;;;;;;;;;24.00;23.25;;;;;;;;5033782;28;45418;-70
2022/01/06 02:21:21;;;;;;;;;26.50;22.50;;;;;;;;5033980;28;45378;-70
2022/01/06 02:23:46;;;;;;;;;32.50;27.50;;;;;;;;5052021;28;45370;-70
2022/01/06 02:26:12;;;;;;;;;21.25;20.50;;;;;;;;5050943;28;45402;-72
2022/01/06 02:28:37;;;;;;;;;33.75;33.25;;;;;;;;5033812;28;46642;-70
2022/01/06 02:31:03;;;;;;;;;20.00;19.75;;;;;;;;5030950;28;45426;-70
2022/01/06 02:33:29;;;;;;;;;27.75;27.75;;;;;;;;5049958;28;45426;-71
2022/01/06 02:35:55;;;;;;;;;27.25;27.25;;;;;;;;5051196;28;46365;-70
2022/01/06 02:38:21;;;;;;;;;26.50;23.00;;;;;;;;5050599;28;45425;-71
2022/01/06 02:40:46;;;;;;;;;24.50;23.50;;;;;;;;5052934;28;45536;-68
2022/01/06 02:43:14;;;;;;;;;28.50;23.50;;;;;;;;5053547;28;45344;-69
2022/01/06 02:45:40;;;;;;;;;32.00;29.50;;;;;;;;5035640;28;47767;-70
2022/01/06 02:48:08;;;;;;;;;32.50;26.25;;;;;;;;5052957;28;45511;-69
2022/01/06 02:50:35;;;;;;;;;27.25;25.00;;;;;;;;5039294;28;47280;-70
2022/01/06 02:53:00;;;;;;;;;27.50;24.25;;;;;;;;5034027;28;45952;-68
2022/01/06 02:55:25;;;;;;;;;27.25;27.25;;;;;;;;5053377;28;46570;-70
2022/01/06 02:57:50;;;;;;;;;28.00;28.00;;;;;;;;5055533;28;45394;-70
2022/01/06 03:00:17;;;;;;;;;29.75;25.00;;;;;;;;5054761;28;45819;-69
2022/01/06 03:02:43;;;;;;;;;27.00;22.50;;;;;;;;5055503;28;45415;-70
2022/01/06 03:05:09;;;;;;;;;27.75;26.00;;;;;;;;5053512;28;46443;-70
2022/01/06 03:07:34;;;;;;;;;26.00;24.00;;;;;;;;5055839;28;45357;-70
2022/01/06 03:10:02;;;;;;;;;21.75;21.75;;;;;;;;5035573;28;45571;-69
2022/01/06 03:12:39;;;;;;;;;24.75;23.75;;;;;;;;5070413;28;45712;-70
2022/01/06 03:15:05;;;;;;;;;28.00;24.00;;;;;;;;5053723;28;46536;-69
2022/01/06 03:17:30;;;;;;;;;26.50;26.50;;;;;;;;5054572;28;45480;-69
2022/01/06 03:19:55;;;;;;;;;31.25;27.00;;;;;;;;5054118;28;45581;-70
2022/01/06 03:22:20;;;;;;;;;19.25;19.25;;;;;;;;5055430;28;45299;-69
2022/01/06 03:24:45;;;;;;;;;24.50;21.50;;;;;;;;5054701;28;46725;-71
2022/01/06 03:27:11;;;;;;;;;21.00;21.00;;;;;;;;5054422;28;45354;-71
2022/01/06 03:29:36;;;;;;;;;28.25;25.50;;;;;;;;5054906;28;45450;-68
2022/01/06 03:32:01;;;;;;;;;33.00;24.00;;;;;;;;5053470;28;45341;-69
2022/01/06 03:34:30;;;;;;;;;21.50;21.00;;;;;;;;5036935;28;47901;-70
2022/01/06 03:36:56;;;;;;;;;25.50;25.00;;;;;;;;5036603;28;46117;-70
2022/01/06 03:39:21;;;;;;;;;25.00;20.50;;;;;;;;5034854;28;45931;-68
2022/01/06 03:41:47;;;;;;;;;23.00;18.75;;;;;;;;5054443;28;45489;-70
2022/01/06 03:44:12;;;;;;;;;17.00;17.00;;;;;;;;5054233;28;47781;-71
2022/01/06 03:46:37;;;;;;;;;21.25;21.25;;;;;;;;5039232;28;46107;-70
2022/01/06 03:49:02;;;;;;;;;23.75;20.00;;;;;;;;5054613;28;45531;-70
2022/01/06 03:51:28;;;;;;;;;21.25;19.50;;;;;;;;5053484;28;45626;-70
2022/01/06 03:53:53;;;;;;;;;20.00;19.00;;;;;;;;5053947;28;46202;-70
2022/01/06 03:56:18;;;;;;;;;19.50;17.75;;;;;;;;5054048;28;45900;-71
2022/01/06 03:58:44;;;;;;;;;19.50;16.75;;;;;;;;5047199;28;45920;-70
2022/01/06 04:01:10;;;;;;;;;20.25;19.00;;;;;;;;5074217;27;45531;-70
2022/01/06 04:03:35;;;;;;;;;25.25;20.25;;;;;;;;5040644;28;47447;-71
2022/01/06 04:06:00;;;;;;;;;17.00;16.50;;;;;;;;5054495;28;45599;-69
2022/01/06 04:08:25;;;;;;;;;18.50;17.50;;;;;;;;5083095;27;45484;-69
2022/01/06 04:10:51;;;;;;;;;18.50;16.25;;;;;;;;5054257;28;45375;-70
2022/01/06 04:13:16;;;;;;;;;20.50;17.50;;;;;;;;5054071;28;46283;-71
2022/01/06 04:15:44;;;;;;;;;16.25;16.25;;;;;;;;5054678;28;45504;-70
2022/01/06 04:18:09;;;;;;;;;21.75;19.50;;;;;;;;5036173;28;45381;-70
2022/01/06 04:20:34;;;;;;;;;19.00;16.75;;;;;;;;5054378;28;45821;-70
2022/01/06 04:22:59;;;;;;;;;18.00;18.00;;;;;;;;5053727;28;46189;-69
2022/01/06 04:25:24;;;;;;;;;22.50;19.00;;;;;;;;5054557;28;45291;-70
2022/01/06 04:27:50;;;;;;;;;20.50;19.00;;;;;;;;5053739;28;45389;-70
2022/01/06 04:30:15;;;;;;;;;20.50;20.50;;;;;;;;5035809;28;45540;-70
2022/01/06 04:32:40;;;;;;;;;25.25;20.50;;;;;;;;5035183;28;48442;-70
2022/01/06 04:35:06;;;;;;;;;17.50;14.25;;;;;;;;5052410;28;45353;-70
2022/01/06 04:37:32;;;;;;;;;17.75;16.00;;;;;;;;5034065;28;45545;-70
2022/01/06 04:39:57;;;;;;;;;19.25;17.25;;;;;;;;5033522;28;45513;-70
2022/01/06 04:42:22;;;;;;;;;18.25;17.50;;;;;;;;5021932;28;48335;-69
2022/01/06 04:44:47;;;;;;;;;15.25;11.00;;;;;;;;5052337;28;45443;-68
2022/01/06 04:47:13;;;;;;;;;18.75;15.75;;;;;;;;5002831;28;45492;-69
2022/01/06 04:49:38;;;;;;;;;21.00;15.75;;;;;;;;5038206;28;45649;-69
2022/01/06 04:52:03;;;;;;;;;17.00;17.00;;;;;;;;5053208;28;46204;-71
2022/01/06 04:54:28;;;;;;;;;19.50;18.50;;;;;;;;5053263;28;45481;-70
2022/01/06 04:56:54;;;;;;;;;15.75;15.75;;;;;;;;5070557;27;45400;-69
2022/01/06 04:59:19;;;;;;;;;19.25;16.00;;;;;;;;5053565;28;45429;-70
2022/01/06 05:01:44;;;;;;;;;19.75;15.75;;;;;;;;5044013;28;48758;-69
2022/01/06 05:04:10;;;;;;;;;17.25;14.25;;;;;;;;5035211;28;45681;-71
2022/01/06 05:06:35;;;;;;;;;20.50;16.50;;;;;;;;5053654;28;45286;-69
2022/01/06 05:09:00;;;;;;;;;16.75;15.50;;;;;;;;5035778;28;45434;-68
2022/01/06 05:11:26;;;;;;;;;19.50;17.25;;;;;;;;5053117;28;45528;-70
2022/01/06 05:13:51;;;;;;;;;20.25;18.00;;;;;;;;5053361;28;45342;-70
2022/01/06 05:16:17;;;;;;;;;13.00;11.50;;;;;;;;5035391;28;45920;-70
2022/01/06 05:18:42;;;;;;;;;14.25;12.75;;;;;;;;5034612;28;45609;-69
2022/01/06 05:21:08;;;;;;;;;17.25;17.25;;;;;;;;5054459;28;45519;-68
2022/01/06 05:23:33;;;;;;;;;18.75;15.00;;;;;;;;5053750;28;45425;-71
2022/01/06 05:25:59;;;;;;;;;13.50;13.50;;;;;;;;5035786;28;45391;-70
2022/01/06 05:28:24;;;;;;;;;17.25;17.25;;;;;;;;5053173;28;45493;-72
2022/01/06 05:30:49;;;;;;;;;17.75;15.75;;;;;;;;5034566;28;47379;-72
2022/01/06 05:33:15;;;;;;;;;19.25;16.50;;;;;;;;5052567;28;45500;-69
2022/01/06 05:35:40;;;;;;;;;18.25;15.75;;;;;;;;5052861;28;45455;-69
2022/01/06 05:38:05;;;;;;;;;19.50;17.50;;;;;;;;5034896;28;45513;-70
2022/01/06 05:40:30;;;;;;;;;7.25;5.75;;;;;;;;5045565;28;48744;-70
2022/01/06 05:42:57;;;;;;;;;20.25;18.75;;;;;;;;5052651;28;45351;-71
2022/01/06 05:45:22;;;;;;;;;19.75;19.75;;;;;;;;5052415;28;45824;-68
2022/01/06 05:47:47;;;;;;;;;15.25;14.00;;;;;;;;5034797;28;45548;-68
2022/01/06 05:50:13;;;;;;;;;25.25;22.75;;;;;;;;5052337;28;45772;-68
2022/01/06 05:52:38;;;;;;;;;30.00;22.50;;;;;;;;5052942;28;45465;-68
2022/01/06 05:55:03;;;;;;;;;15.50;15.50;;;;;;;;5034531;28;45552;-68
2022/01/06 05:57:29;;;;;;;;;17.75;17.50;;;;;;;;5052347;28;45776;-69
2022/01/06 05:59:54;;;;;;;;;21.00;21.00;;;;;;;;5034275;28;48395;-70
2022/01/06 06:02:19;;;;;;;;;17.50;17.50;;;;;;;;5034261;28;46024;-69
2022/01/06 06:04:45;;;;;;;;;28.50;26.50;;;;;;;;5053065;28;45524;-68
2022/01/06 06:07:11;;;;;;;;;21.00;20.00;;;;;;;;5052554;28;45599;-68
2022/01/06 06:09:36;;;;;;;;;21.75;19.75;;;;;;;;5052323;28;46835;-69
2022/01/06 06:12:01;;;;;;;;;21.00;19.00;;;;;;;;5052317;28;45342;-70
2022/01/06 06:14:27;;;;;;;;;20.75;17.75;;;;;;;;5052566;28;45480;-71
2022/01/06 06:16:52;;;;;;;;;17.50;17.50;;;;;;;;5052544;28;45454;-68
2022/01/06 06:19:17;;;;;;;;;24.50;20.75;;;;;;;;5034660;28;46549;-69
2022/01/06 06:21:42;;;;;;;;;18.50;15.25;;;;;;;;5037531;28;45365;-70
2022/01/06 06:24:08;;;;;;;;;19.50;18.50;;;;;;;;5052362;28;45664;-69
2022/01/06 06:26:33;;;;;;;;;23.00;19.50;;;;;;;;5052373;28;45355;-71
2022/01/06 06:28:58;;;;;;;;;19.75;18.00;;;;;;;;5052113;28;46323;-69
2022/01/06 06:31:23;;;;;;;;;24.25;23.50;;;;;;;;5036955;28;46281;-71
2022/01/06 06:33:48;;;;;;;;;23.25;21.50;;;;;;;;5055918;28;45318;-69
2022/01/06 06:36:14;;;;;;;;;20.75;20.75;;;;;;;;5037261;28;45637;-69
2022/01/06 06:38:39;;;;;;;;;27.50;24.00;;;;;;;;5055352;28;46003;-67
2022/01/06 06:41:04;;;;;;;;;22.00;20.00;;;;;;;;5037365;28;46152;-69
2022/01/06 06:43:29;;;;;;;;;24.50;22.25;;;;;;;;5056467;28;45897;-72
2022/01/06 06:45:54;;;;;;;;;27.50;23.75;;;;;;;;5055288;28;45514;-68
2022/01/06 06:48:21;;;;;;;;;24.50;22.50;;;;;;;;5078129;27;48512;-68
2022/01/06 06:50:47;;;;;;;;;25.00;24.50;;;;;;;;5055064;28;45546;-70
2022/01/06 06:53:12;;;;;;;;;24.75;23.50;;;;;;;;5055419;28;45393;-68
2022/01/06 06:55:37;;;;;;;;;6.25;1.00;;;;;;;;5055417;28;45475;-70
2022/01/06 06:58:03;;;;;;;;;28.75;26.00;;;;;;;;5036588;28;48561;-71
2022/01/06 07:00:28;;;;;;;;;24.50;22.00;;;;;;;;5055201;28;45372;-71
2022/01/06 07:02:53;;;;;;;;;23.75;18.25;;;;;;;;5054826;28;45441;-71
2022/01/06 07:05:18;;;;;;;;;23.75;21.75;;;;;;;;5055523;28;45300;-71
2022/01/06 07:07:44;;;;;;;;;28.00;24.25;;;;;;;;5055560;28;46419;-69
2022/01/06 07:10:09;;;;;;;;;28.50;26.50;;;;;;;;5036697;28;46191;-71
2022/01/06 07:12:42;;;;;;;;;25.75;22.25;;;;;;;;5054834;28;45421;-71
2022/01/06 07:15:08;;;;;;;;;25.50;21.00;;;;;;;;5036975;28;45564;-77
2022/01/06 07:17:33;;;;;;;;;24.00;22.00;;;;;;;;5036641;28;48012;-74
2022/01/06 07:19:59;;;;;;;;;26.75;24.25;;;;;;;;5055002;28;45477;-74
2022/01/06 07:22:24;;;;;;;;;21.50;20.25;;;;;;;;5041363;28;45494;-73
2022/01/06 07:24:49;;;;;;;;;21.00;20.00;;;;;;;;5033097;28;45591;-72
2022/01/06 07:27:14;;;;;;;;;25.50;25.50;;;;;;;;5039051;28;45648;-72
2022/01/06 07:29:39;;;;;;;;;30.50;26.50;;;;;;;;5036232;28;46041;-72
2022/01/06 07:32:05;;;;;;;;;28.75;27.75;;;;;;;;5054895;28;45497;-72
2022/01/06 07:34:30;;;;;;;;;30.25;28.25;;;;;;;;5037445;28;45573;-73
2022/01/06 07:36:55;;;;;;;;;24.25;24.00;;;;;;;;5053031;28;45804;-72
2022/01/06 07:39:21;;;;;;;;;24.25;23.00;;;;;;;;5054267;28;45509;-72
2022/01/06 07:41:46;;;;;;;;;34.50;28.75;;;;;;;;5019316;28;45436;-70
2022/01/06 07:44:11;;;;;;;;;30.50;26.75;;;;;;;;5044991;28;45286;-72
2022/01/06 07:46:37;;;;;;;;;24.25;21.25;;;;;;;;5050281;28;46080;-71
2022/01/06 07:49:03;;;;;;;;;27.50;24.50;;;;;;;;5043853;28;45521;-71
2022/01/06 07:51:29;;;;;;;;;23.25;20.25;;;;;;;;5046670;28;45573;-73
2022/01/06 07:53:55;;;;;;;;;29.50;25.75;;;;;;;;5035094;28;45423;-72
2022/01/06 07:56:21;;;;;;;;;27.00;22.75;;;;;;;;5036670;28;47354;-72
2022/01/06 07:58:46;;;;;;;;;28.25;25.75;;;;;;;;5038318;28;46240;-71
2022/01/06 08:01:13;;;;;;;;;25.75;22.50;;;;;;;;5033803;28;45440;-73
2022/01/06 08:03:39;;;;;;;;;33.00;28.25;;;;;;;;5045154;28;46023;-73
2022/01/06 08:06:04;;;;;;;;;32.50;26.25;;;;;;;;5052128;28;45658;-72
2022/01/06 08:08:29;;;;;;;;;25.50;23.00;;;;;;;;5047844;28;45579;-73
2022/01/06 08:10:55;;;;;;;;;27.25;23.75;;;;;;;;5052241;28;45457;-72
2022/01/06 08:13:20;;;;;;;;;25.75;24.00;;;;;;;;5032560;28;45585;-73
2022/01/06 08:15:45;;;;;;;;;27.50;21.50;;;;;;;;5045785;28;45454;-72
2022/01/06 08:18:11;;;;;;;;;28.75;26.25;;;;;;;;5034324;28;47362;-70
2022/01/06 08:20:38;;;;;;;;;25.50;24.25;;;;;;;;5051949;28;45566;-72
2022/01/06 08:23:03;;;;;;;;;20.75;18.75;;;;;;;;5034500;28;45577;-73
2022/01/06 08:25:28;;;;;;;;;26.75;22.00;;;;;;;;5047350;28;46427;-72
2022/01/06 08:27:54;;;;;;;;;25.50;21.75;;;;;;;;5044809;28;45607;-73
2022/01/06 08:30:19;;;;;;;;;26.75;25.00;;;;;;;;5049861;28;45496;-71
2022/01/06 08:32:44;;;;;;;;;28.50;23.75;;;;;;;;5046520;28;45565;-72
2022/01/06 08:35:10;;;;;;;;;30.50;28.75;;;;;;;;5024327;28;47267;-72
2022/01/06 08:37:35;;;;;;;;;20.50;20.25;;;;;;;;5049568;28;45372;-72
2022/01/06 08:40:00;;;;;;;;;24.25;21.50;;;;;;;;5033939;28;45386;-72
2022/01/06 08:42:26;;;;;;;;;26.25;23.75;;;;;;;;5028868;28;45573;-73
2022/01/06 08:44:51;;;;;;;;;28.00;24.50;;;;;;;;5049043;28;45906;-72
2022/01/06 08:47:16;;;;;;;;;21.00;19.75;;;;;;;;5051412;28;46200;-72
2022/01/06 08:49:41;;;;;;;;;22.00;20.50;;;;;;;;5035034;28;45367;-72
2022/01/06 08:52:07;;;;;;;;;21.50;21.25;;;;;;;;5067429;28;45818;-72
2022/01/06 08:54:32;;;;;;;;;29.75;23.75;;;;;;;;5052138;28;45987;-70
2022/01/06 08:56:57;;;;;;;;;28.00;26.00;;;;;;;;5063847;28;46069;-71
2022/01/06 08:59:23;;;;;;;;;32.25;32.25;;;;;;;;5053789;28;45328;-71
2022/01/06 09:01:48;;;;;;;;;36.75;29.50;;;;;;;;5035488;28;45390;-71
2022/01/06 09:04:13;;;;;;;;;32.75;31.00;;;;;;;;5035279;28;46093;-72
2022/01/06 09:06:38;;;;;;;;;32.25;29.25;;;;;;;;5053478;28;45505;-73
2022/01/06 09:09:04;;;;;;;;;33.25;28.00;;;;;;;;5042622;28;45396;-72
2022/01/06 09:11:29;;;;;;;;;33.50;30.50;;;;;;;;5057268;28;45389;-71
2022/01/06 09:13:54;;;;;;;;;30.00;24.25;;;;;;;;5053939;28;46105;-72
2022/01/06 09:16:19;;;;;;;;;27.75;26.75;;;;;;;;5054130;28;45604;-73
2022/01/06 09:18:45;;;;;;;;;30.25;29.50;;;;;;;;5049615;28;45512;-73
2022/01/06 09:21:10;;;;;;;;;36.50;31.75;;;;;;;;5050540;28;45797;-72
2022/01/06 09:23:36;;;;;;;;;38.25;36.50;;;;;;;;5056334;28;45423;-72
2022/01/06 09:26:01;;;;;;;;;34.00;33.25;;;;;;;;5056750;28;45830;-73
2022/01/06 09:28:26;;;;;;;;;41.00;32.25;;;;;;;;5043025;28;45393;-75
2022/01/06 09:30:53;;;;;;;;;40.25;34.50;;;;;;;;5056592;28;45429;-74
2022/01/06 09:33:19;;;;;;;;;34.50;29.50;;;;;;;;5055369;28;45726;-72
2022/01/06 09:35:45;;;;;;;;;34.75;34.25;;;;;;;;5055087;28;45479;-73
2022/01/06 09:38:11;;;;;;;;;36.25;34.00;;;;;;;;5033078;28;45619;-73
2022/01/06 09:40:38;;;;;;;;;29.75;28.25;;;;;;;;5044097;28;45386;-73
2022/01/06 09:43:03;;;;;;;;;33.00;29.50;;;;;;;;5034705;28;47577;-76
2022/01/06 09:45:28;;;;;;;;;32.50;31.25;;;;;;;;5036767;28;45528;-69
2022/01/06 09:47:54;;;;;;;;;36.00;34.50;;;;;;;;5050019;28;45415;-75
2022/01/06 09:50:19;;;;;;;;;42.75;36.00;;;;;;;;5046419;28;45464;-72
2022/01/06 09:52:46;;;;;;;;;43.75;36.00;;;;;;;;5042634;28;45654;-72
2022/01/06 09:55:11;;;;;;;;;42.00;38.00;;;;;;;;5050333;28;45545;-73
2022/01/06 09:57:36;;;;;;;;;36.50;33.50;;;;;;;;5034342;28;45318;-75
2022/01/06 10:00:08;;;;;;;;;29.25;28.25;;;;;;;;5037217;28;45534;-76
2022/01/06 10:02:37;;;;;;;;;32.25;28.25;;;;;;;;5053635;28;45658;-75
2022/01/06 10:05:03;;;;;;;;;28.00;23.00;;;;;;;;5052115;28;45556;-71
2022/01/06 10:07:38;;;;;;;;;22.25;20.25;;;;;;;;5034627;28;45588;-71
2022/01/06 10:10:05;;;;;;;;;30.25;22.50;;;;;;;;5032860;28;45608;-72
2022/01/06 10:12:31;;;;;;;;;24.25;22.00;;;;;;;;5033893;28;49032;-72
2022/01/06 10:14:56;;;;;;;;;28.00;28.00;;;;;;;;5077738;27;45647;-71
2022/01/06 10:17:31;;;;;;;;;31.50;28.50;;;;;;;;5040605;28;45408;-73
2022/01/06 10:20:07;;;;;;;;;23.75;22.75;;;;;;;;5050403;28;45458;-70
2022/01/06 10:22:41;;;;;;;;;36.75;34.00;;;;;;;;5046647;28;45737;-74
2022/01/06 10:25:07;;;;;;;;;29.75;27.50;;;;;;;;5033457;28;45600;-74
2022/01/06 10:27:32;;;;;;;;;28.25;27.50;;;;;;;;5049738;28;45522;-67
2022/01/06 10:29:57;;;;;;;;;27.75;26.50;;;;;;;;5045445;28;47070;-72
2022/01/06 10:32:25;;;;;;;;;28.00;26.25;;;;;;;;5044838;28;45433;-75
2022/01/06 10:34:55;;;;;;;;;31.25;28.75;;;;;;;;5046131;28;45501;-73
2022/01/06 10:37:24;;;;;;;;;28.75;26.00;;;;;;;;5031909;28;45803;-74
2022/01/06 10:39:50;;;;;;;;;28.00;24.75;;;;;;;;5049312;28;45549;-71
2022/01/06 10:42:16;;;;;;;;;23.75;23.50;;;;;;;;5049206;28;46489;-73
2022/01/06 10:44:48;;;;;;;;;27.00;21.75;;;;;;;;5056882;28;45387;-74
2022/01/06 10:47:13;;;;;;;;;25.00;19.25;;;;;;;;5048763;28;45614;-74
2022/01/06 10:49:39;;;;;;;;;26.00;21.25;;;;;;;;5053189;28;45882;-75
2022/01/06 10:52:04;;;;;;;;;24.50;21.25;;;;;;;;5042380;28;45751;-74
2022/01/06 10:54:29;;;;;;;;;22.00;21.25;;;;;;;;5025261;28;46122;-72
2022/01/06 10:57:07;;;;;;;;;17.75;17.75;;;;;;;;5038169;28;46017;-71
2022/01/06 10:59:33;;;;;;;;;20.25;18.00;;;;;;;;5035731;28;45449;-73
2022/01/06 11:01:59;;;;;;;;;18.50;17.50;;;;;;;;5058158;28;45521;-73
2022/01/06 11:04:24;;;;;;;;;21.50;21.50;;;;;;;;5040300;28;45555;-73
2022/01/06 11:06:50;;;;;;;;;25.00;22.00;;;;;;;;5048591;28;46002;-71
2022/01/06 11:09:15;;;;;;;;;20.00;20.00;;;;;;;;5038524;28;45374;-73
2022/01/06 11:14:12;;;;;;;;;23.25;18.25;;;;;;;;5038981;28;45496;-72
2022/01/06 11:16:37;;;;;;;;;23.50;22.00;;;;;;;;5046985;28;45385;-71
2022/01/06 11:19:03;;;;;;;;;23.50;20.50;;;;;;;;5050817;28;44789;-75
2022/01/06 11:21:41;;;;;;;;;28.50;20.75;;;;;;;;5029147;28;47973;-78
2022/01/06 11:24:09;;;;;;;;;25.25;24.75;;;;;;;;5030802;28;46257;-79
2022/01/06 11:26:35;;;;;;;;;25.00;22.50;;;;;;;;5039805;28;45462;-75
2022/01/06 11:29:00;;;;;;;;;23.00;23.00;;;;;;;;5053362;28;45574;-75
2022/01/06 11:31:34;;;;;;;;;26.00;23.50;;;;;;;;5054063;28;45741;-78
2022/01/06 11:34:09;;;;;;;;;26.00;24.00;;;;;;;;5052753;28;45346;-77
2022/01/06 11:36:35;;;;;;;;;32.00;28.00;;;;;;;;5050740;28;45887;-75
2022/01/06 11:39:05;;;;;;;;;23.00;21.75;;;;;;;;5043571;28;45335;-73
2022/01/06 11:41:31;;;;;;;;;20.25;20.25;;;;;;;;5053599;28;45529;-68
2022/01/06 11:43:58;;;;;;;;;20.50;19.00;;;;;;;;5062231;27;45430;-71
2022/01/06 11:46:23;;;;;;;;;19.75;19.75;;;;;;;;5036623;28;45804;-71
2022/01/06 11:48:50;;;;;;;;;22.75;21.25;;;;;;;;5028591;28;45599;-72
2022/01/06 11:51:22;;;;;;;;;22.25;20.00;;;;;;;;5075163;27;47307;-72
2022/01/06 11:53:47;;;;;;;;;17.50;17.00;;;;;;;;5035874;28;45415;-72
2022/01/06 11:56:13;;;;;;;;;20.75;16.75;;;;;;;;5033410;28;45344;-70
2022/01/06 11:58:38;;;;;;;;;9.50;9.00;;;;;;;;5031668;28;45468;-74
2022/01/06 12:01:07;;;;;;;;;15.25;13.25;;;;;;;;5029107;28;47205;-74
2022/01/06 12:03:40;;;;;;;;;11.50;10.25;;;;;;;;5073087;27;47974;-74
2022/01/06 12:06:06;;;;;;;;;10.75;10.50;;;;;;;;5038657;28;45373;-74
2022/01/06 12:08:36;;;;;;;;;12.00;11.00;;;;;;;;5049672;28;45633;-71
2022/01/06 12:11:02;;;;;;;;;8.25;8.25;;;;;;;;5050475;28;45719;-70
2022/01/06 12:13:27;;;;;;;;;10.00;10.00;;;;;;;;5030125;28;45596;-70
2022/01/06 12:15:54;;;;;;;;;8.00;6.25;;;;;;;;5029365;28;45530;-72
2022/01/06 12:18:19;;;;;;;;;10.50;6.00;;;;;;;;5031159;28;45629;-71
2022/01/06 12:20:45;;;;;;;;;6.25;5.50;;;;;;;;5028368;28;47796;-71
2022/01/06 12:23:10;;;;;;;;;7.25;6.00;;;;;;;;5033606;28;46260;-72
2022/01/06 12:25:35;;;;;;;;;3.25;3.25;;;;;;;;5034026;28;45425;-72
2022/01/06 12:28:00;;;;;;;;;10.25;5.00;;;;;;;;5043640;28;45361;-72
2022/01/06 12:30:28;;;;;;;;;9.50;7.25;;;;;;;;5042072;28;46143;-75
2022/01/06 12:33:13;;;;;;;;;10.00;10.00;;;;;;;;5049240;28;45438;-75
2022/01/06 12:35:45;;;;;;;;;4.00;4.00;;;;;;;;5047034;28;45498;-71
2022/01/06 12:38:11;;;;;;;;;4.75;3.75;;;;;;;;5034451;28;45441;-73
2022/01/06 12:40:37;;;;;;;;;6.00;6.00;;;;;;;;5030056;28;47822;-75
2022/01/06 12:43:16;;;;;;;;;3.50;3.00;;;;;;;;5050118;28;45350;-77
2022/01/06 12:45:43;;;;;;;;;5.00;5.00;;;;;;;;5047743;28;45547;-72
2022/01/06 12:48:08;;;;;;;;;4.00;4.00;;;;;;;;5036915;28;48259;-72
2022/01/06 12:50:48;;;;;;;;;4.33;3.33;;;;;;;;5059417;28;46346;-76
2022/01/06 12:53:23;;;;;;;;;4.00;4.00;;;;;;;;5040746;28;45924;-74
2022/01/06 12:55:50;;;;;;;;;8.00;6.50;;;;;;;;5044124;28;45459;-74
2022/01/06 12:58:22;;;;;;;;;13.75;12.50;;;;;;;;5044869;28;46076;-77
2022/01/06 13:00:51;;;;;;;;;8.25;8.25;;;;;;;;5034105;28;46082;-77
2022/01/06 13:03:25;;;;;;;;;7.75;6.25;;;;;;;;5053171;28;45899;-77
2022/01/06 13:05:50;;;;;;;;;4.25;3.75;;;;;;;;5042489;28;45364;-74
2022/01/06 13:08:15;;;;;;;;;7.75;7.75;;;;;;;;5051589;28;45835;-77
2022/01/06 13:10:40;;;;;;;;;3.00;3.00;;;;;;;;5054590;28;45924;-78
2022/01/06 13:13:05;;;;;;;;;5.50;5.50;;;;;;;;5035330;28;45427;-74
2022/01/06 13:15:32;;;;;;;;;4.00;4.00;;;;;;;;5035137;28;45500;-75
2022/01/06 13:17:57;;;;;;;;;4.75;2.75;;;;;;;;5051488;28;45516;-77
2022/01/06 13:20:22;;;;;;;;;2.67;2.67;;;;;;;;5034658;28;47237;-77
2022/01/06 13:25:20;;;;;;;;;3.50;3.50;;;;;;;;5055413;28;45420;-78
2022/01/06 13:28:06;;;;;;;;;3.25;3.25;;;;;;;;5054395;28;45417;-76
2022/01/06 13:30:39;;;;;;;;;6.75;4.50;;;;;;;;5048742;28;45741;-77
2022/01/06 13:33:06;;;;;;;;;3.00;3.00;;;;;;;;5038830;28;48140;-74
2022/01/06 13:35:31;;;;;;;;;3.00;3.00;;;;;;;;5042874;28;46144;-77
2022/01/06 13:37:57;;;;;;;;;5.00;3.50;;;;;;;;5058005;28;45431;-77
2022/01/06 13:40:22;;;;;;;;;11.00;9.75;;;;;;;;5050154;28;46792;-76
2022/01/06 13:42:51;;;;;;;;;6.25;5.00;;;;;;;;5034253;28;45446;-76
2022/01/06 13:45:34;;;;;;;;;11.25;8.50;;;;;;;;5044465;28;45484;-76
2022/01/06 13:48:03;;;;;;;;;8.00;6.00;;;;;;;;5049036;28;45531;-73
2022/01/06 13:53:18;;;;;;;;;8.50;6.75;;;;;;;;5048243;28;45465;-75
2022/01/06 13:55:54;;;;;;;;;8.50;6.50;;;;;;;;5048167;28;45462;-75
2022/01/06 13:58:19;;;;;;;;;7.00;5.25;;;;;;;;5051911;28;45585;-72
2022/01/06 14:00:44;;;;;;;;;4.50;4.50;;;;;;;;5048630;28;45568;-76
2022/01/06 14:03:09;;;;;;;;;4.50;2.25;;;;;;;;5058941;28;45499;-76
2022/01/06 14:05:35;;;;;;;;;4.75;3.00;;;;;;;;5051464;28;45484;-75
2022/01/06 14:08:00;;;;;;;;;3.00;3.00;;;;;;;;5060492;28;45397;-75
2022/01/06 14:10:25;;;;;;;;;1.75;1.75;;;;;;;;5049887;28;45545;-74
2022/01/06 14:12:53;;;;;;;;;6.50;6.50;;;;;;;;5026378;28;46146;-77
2022/01/06 14:15:19;;;;;;;;;9.75;7.00;;;;;;;;5057908;28;45860;-76
2022/01/06 14:17:45;;;;;;;;;4.00;2.75;;;;;;;;5031326;28;45462;-76
2022/01/06 14:20:10;;;;;;;;;3.00;2.75;;;;;;;;5058539;28;46143;-76
2022/01/06 14:22:35;;;;;;;;;3.00;2.50;;;;;;;;5050527;28;45413;-76
2022/01/06 14:25:00;;;;;;;;;3.00;2.00;;;;;;;;5033362;28;45538;-76
2022/01/06 14:27:26;;;;;;;;;2.50;2.50;;;;;;;;5073972;27;45433;-78
2022/01/06 14:29:51;;;;;;;;;2.00;1.25;;;;;;;;5059463;27;47586;-74
2022/01/06 14:32:16;;;;;;;;;2.00;1.75;;;;;;;;5040229;28;46207;-77